Time;durP1;ratioP1;P1;durP2;ratioP2;P2;SDS_P1;SDS_P2;PMS_P1;PMS_P2;Temp;Humidity;BMP_temperature;BMP_pressure;BME280_temperature;BME280_humidity;BME280_pressure;Samples;Min_cycle;Max_cycle;Signal;HPM_P1;HPM_P2
2024/01/02 00:01:08;;;;;;;14.23;2.53;;;9.10;99.90;;;;;;5036708;28;20017;-73
2024/01/02 00:03:34;;;;;;;7.18;2.15;;;9.10;99.90;;;;;;5038561;28;20384;-73
2024/01/02 00:06:00;;;;;;;13.02;2.45;;;9.10;99.90;;;;;;5040445;28;20029;-73
2024/01/02 00:08:25;;;;;;;7.57;2.33;;;9.10;99.90;;;;;;5033346;28;20108;-74
2024/01/02 00:10:51;;;;;;;8.07;2.03;;;9.20;99.90;;;;;;5038790;28;20117;-73
2024/01/02 00:13:17;;;;;;;11.13;2.28;;;9.10;99.90;;;;;;5037971;28;21121;-73
2024/01/02 00:15:43;;;;;;;8.05;1.90;;;9.20;99.90;;;;;;5039190;28;20417;-73
2024/01/02 00:18:09;;;;;;;11.15;2.50;;;9.20;99.90;;;;;;5034170;28;20029;-73
2024/01/02 00:20:34;;;;;;;8.20;2.08;;;9.20;99.90;;;;;;5039035;28;20363;-74
2024/01/02 00:23:00;;;;;;;8.52;1.75;;;9.30;99.90;;;;;;5037498;28;20029;-73
2024/01/02 00:25:26;;;;;;;13.00;2.00;;;9.30;99.90;;;;;;5036316;28;20148;-73
2024/01/02 00:27:51;;;;;;;8.60;2.17;;;9.30;99.90;;;;;;5036699;28;20056;-73
2024/01/02 00:30:17;;;;;;;10.85;1.70;;;9.30;99.90;;;;;;5038358;28;20044;-73
2024/01/02 00:32:43;;;;;;;7.90;1.73;;;9.30;99.90;;;;;;5040211;28;20021;-73
2024/01/02 00:35:10;;;;;;;9.32;1.70;;;9.20;99.90;;;;;;5044612;28;20103;-73
2024/01/02 00:37:36;;;;;;;9.38;1.63;;;9.00;99.90;;;;;;5043382;28;20508;-73
2024/01/02 00:40:02;;;;;;;11.32;1.20;;;9.10;99.90;;;;;;5045710;28;20025;-73
2024/01/02 00:42:28;;;;;;;7.63;1.38;;;9.10;99.90;;;;;;5048287;28;20035;-72
2024/01/02 00:44:53;;;;;;;4.63;1.33;;;9.10;99.90;;;;;;5044146;28;20047;-73
2024/01/02 00:47:21;;;;;;;5.22;1.27;;;9.00;99.90;;;;;;5044670;28;20497;-72
2024/01/02 00:49:48;;;;;;;4.88;0.98;;;9.10;99.90;;;;;;5052899;28;20037;-72
2024/01/02 00:52:14;;;;;;;4.53;1.00;;;9.00;99.90;;;;;;5042370;28;20072;-72
2024/01/02 00:54:40;;;;;;;5.05;1.10;;;9.10;99.90;;;;;;5042196;28;20032;-74
2024/01/02 00:57:06;;;;;;;3.03;1.90;;;9.10;99.90;;;;;;5043833;28;20033;-72
2024/01/02 00:59:32;;;;;;;4.38;1.48;;;9.00;99.90;;;;;;5048936;28;20017;-73
2024/01/02 01:01:57;;;;;;;6.78;1.50;;;9.00;99.90;;;;;;5040531;28;20028;-73
2024/01/02 01:04:23;;;;;;;2.85;1.27;;;9.00;99.90;;;;;;5044516;28;20024;-73
2024/01/02 01:06:49;;;;;;;7.63;1.00;;;9.00;99.90;;;;;;5049435;28;21317;-74
2024/01/02 01:09:15;;;;;;;2.22;0.80;;;9.00;99.90;;;;;;5040056;28;20043;-73
2024/01/02 01:11:40;;;;;;;3.35;0.82;;;9.00;99.90;;;;;;5041571;28;20462;-73
2024/01/02 01:14:06;;;;;;;2.38;0.90;;;9.10;99.90;;;;;;5042675;28;20032;-72
2024/01/02 01:16:32;;;;;;;6.05;0.68;;;9.00;99.90;;;;;;5047421;28;20021;-73
2024/01/02 01:18:58;;;;;;;4.43;0.65;;;9.00;99.90;;;;;;5041317;28;20033;-73
2024/01/02 01:21:23;;;;;;;1.00;0.60;;;9.00;99.90;;;;;;5045500;28;20025;-73
2024/01/02 01:23:50;;;;;;;1.45;0.60;;;9.10;99.90;;;;;;5048902;28;20385;-72
2024/01/02 01:26:16;;;;;;;2.75;0.60;;;9.10;99.90;;;;;;5044731;28;20040;-72
2024/01/02 01:28:41;;;;;;;1.17;0.50;;;9.10;99.90;;;;;;5042211;28;20543;-73
2024/01/02 01:31:07;;;;;;;2.38;0.60;;;9.10;99.90;;;;;;5051512;28;20026;-74
2024/01/02 01:33:33;;;;;;;0.85;0.40;;;9.10;99.90;;;;;;5048261;28;20025;-73
2024/01/02 01:35:59;;;;;;;3.58;0.52;;;9.10;99.90;;;;;;5047796;28;20022;-73
2024/01/02 01:38:24;;;;;;;2.83;0.80;;;9.20;99.90;;;;;;5044147;28;20168;-74
2024/01/02 01:40:50;;;;;;;2.08;0.50;;;9.20;99.90;;;;;;5044744;28;20025;-74
2024/01/02 01:43:16;;;;;;;1.42;0.88;;;9.30;99.90;;;;;;5042636;28;20079;-73
2024/01/02 01:45:41;;;;;;;1.13;0.30;;;9.40;99.90;;;;;;5046048;28;20025;-73
2024/01/02 01:48:09;;;;;;;3.05;0.60;;;9.30;99.90;;;;;;5046984;28;20385;-74
2024/01/02 01:50:36;;;;;;;1.63;0.30;;;9.20;99.90;;;;;;5041826;28;20029;-74
2024/01/02 01:53:03;;;;;;;3.47;0.50;;;9.20;99.90;;;;;;5042241;28;20034;-75
2024/01/02 01:55:29;;;;;;;0.52;0.30;;;9.20;99.90;;;;;;5050950;28;20029;-74
2024/01/02 01:57:55;;;;;;;1.40;0.40;;;9.20;99.90;;;;;;5049837;28;20033;-74
2024/01/02 02:00:21;;;;;;;0.50;0.38;;;9.20;99.90;;;;;;5046178;28;20087;-73
2024/01/02 02:02:48;;;;;;;1.10;0.32;;;9.20;99.90;;;;;;5042112;28;20560;-73
2024/01/02 02:05:14;;;;;;;0.90;0.20;;;9.20;99.90;;;;;;5048382;28;20031;-74
2024/01/02 02:07:40;;;;;;;2.97;0.50;;;9.20;99.90;;;;;;5042343;28;20536;-73
2024/01/02 02:10:10;;;;;;;0.80;0.32;;;9.20;99.90;;;;;;5049576;28;20029;-73
2024/01/02 02:12:36;;;;;;;1.45;0.13;;;9.10;99.90;;;;;;5046522;28;20071;-74
2024/01/02 02:15:03;;;;;;;2.08;0.30;;;9.20;99.90;;;;;;5049205;28;20033;-74
2024/01/02 02:17:30;;;;;;;0.43;0.30;;;9.20;99.90;;;;;;5046318;28;20025;-73
2024/01/02 02:19:56;;;;;;;1.17;0.30;;;9.20;99.90;;;;;;5039413;28;20037;-73
2024/01/02 02:22:36;;;;;;;1.20;0.40;;;9.30;99.90;;;;;;5041835;28;20104;-73
2024/01/02 02:25:03;;;;;;;0.20;0.20;;;9.40;99.90;;;;;;5045595;28;20104;-73
2024/01/02 02:27:30;;;;;;;2.97;0.20;;;9.30;99.90;;;;;;5050983;28;20025;-73
2024/01/02 02:29:55;;;;;;;2.20;0.20;;;9.30;99.90;;;;;;5049060;28;20505;-75
2024/01/02 02:32:22;;;;;;;1.58;0.50;;;9.40;99.90;;;;;;5044174;28;20025;-74
2024/01/02 02:34:47;;;;;;;0.10;0.10;;;9.40;99.90;;;;;;5044202;28;20028;-74
2024/01/02 02:37:13;;;;;;;2.15;0.45;;;9.30;99.90;;;;;;5044067;28;20282;-74
2024/01/02 02:39:39;;;;;;;0.30;0.22;;;9.40;99.90;;;;;;5038223;28;20368;-73
2024/01/02 02:42:05;;;;;;;0.32;0.20;;;9.40;99.90;;;;;;5041423;28;20037;-74
2024/01/02 02:44:31;;;;;;;1.75;0.20;;;9.50;99.90;;;;;;5048352;28;20024;-74
2024/01/02 02:46:57;;;;;;;0.13;0.10;;;9.50;99.90;;;;;;5046327;28;20619;-73
2024/01/02 02:49:23;;;;;;;1.13;0.28;;;9.40;99.90;;;;;;5045102;28;20501;-73
2024/01/02 02:51:49;;;;;;;0.57;0.30;;;9.40;99.90;;;;;;5041289;28;20032;-73
2024/01/02 02:54:15;;;;;;;1.73;0.30;;;9.50;99.90;;;;;;5041130;28;20033;-73
2024/01/02 02:56:43;;;;;;;0.65;0.45;;;9.50;99.90;;;;;;5052688;28;20485;-73
2024/01/02 02:59:09;;;;;;;1.48;0.15;;;9.60;99.90;;;;;;5046916;28;20037;-74
2024/01/02 03:01:35;;;;;;;0.80;0.30;;;9.60;99.90;;;;;;5047459;28;20036;-74
2024/01/02 03:04:01;;;;;;;0.40;0.20;;;9.60;99.90;;;;;;5039674;28;20037;-73
2024/01/02 03:06:26;;;;;;;0.55;0.30;;;9.60;99.90;;;;;;5050608;28;20026;-73
2024/01/02 03:08:52;;;;;;;0.93;0.50;;;9.70;99.90;;;;;;5048875;28;20177;-73
2024/01/02 03:11:18;;;;;;;2.17;0.25;;;9.60;99.90;;;;;;5039463;28;20025;-74
2024/01/02 03:13:44;;;;;;;0.10;0.10;;;9.60;99.90;;;;;;5049142;28;20040;-73
2024/01/02 03:16:10;;;;;;;0.10;0.10;;;9.60;99.90;;;;;;5042971;28;20448;-73
2024/01/02 03:18:36;;;;;;;1.05;0.20;;;9.60;99.90;;;;;;5040987;28;20036;-73
2024/01/02 03:21:01;;;;;;;0.30;0.30;;;9.60;99.90;;;;;;5039256;28;20057;-73
2024/01/02 03:23:27;;;;;;;0.63;0.30;;;9.50;99.90;;;;;;5046128;28;20029;-74
2024/01/02 03:25:53;;;;;;;0.82;0.20;;;9.60;99.90;;;;;;5044174;28;20029;-73
2024/01/02 03:28:19;;;;;;;0.25;0.25;;;9.70;99.90;;;;;;5046683;28;20036;-73
2024/01/02 03:30:44;;;;;;;0.30;0.10;;;9.70;99.90;;;;;;5052998;28;20470;-73
2024/01/02 03:33:10;;;;;;;1.25;0.40;;;9.60;99.90;;;;;;5040526;28;20036;-73
2024/01/02 03:35:36;;;;;;;1.10;0.10;;;9.70;99.90;;;;;;5040143;28;20464;-73
2024/01/02 03:38:01;;;;;;;0.20;0.10;;;9.70;99.90;;;;;;5035493;28;20033;-73
2024/01/02 03:40:27;;;;;;;0.10;0.10;;;9.70;99.90;;;;;;5040435;28;20029;-73
2024/01/02 03:42:53;;;;;;;0.65;0.28;;;9.80;99.90;;;;;;5042811;28;20120;-73
2024/01/02 03:45:19;;;;;;;0.68;0.20;;;9.90;99.90;;;;;;5040104;28;20021;-73
2024/01/02 03:47:44;;;;;;;0.20;0.10;;;9.80;99.90;;;;;;5044526;28;20025;-73
2024/01/02 03:50:10;;;;;;;2.38;0.20;;;9.80;99.90;;;;;;5040478;28;20048;-73
2024/01/02 03:52:36;;;;;;;0.80;0.20;;;9.90;99.90;;;;;;5038549;28;20025;-74
2024/01/02 03:55:01;;;;;;;0.38;0.10;;;9.90;99.90;;;;;;5045948;28;20040;-73
2024/01/02 03:57:27;;;;;;;1.38;0.15;;;10.00;99.90;;;;;;5047426;28;20382;-73
2024/01/02 03:59:53;;;;;;;0.13;0.10;;;9.90;99.90;;;;;;5041873;28;20036;-72
2024/01/02 04:02:19;;;;;;;0.47;0.17;;;9.90;99.90;;;;;;5045257;28;20134;-72
2024/01/02 04:04:45;;;;;;;0.15;0.10;;;9.90;99.90;;;;;;5038031;28;20133;-72
2024/01/02 04:07:10;;;;;;;0.13;0.08;;;10.00;99.90;;;;;;5048574;28;20585;-72
2024/01/02 04:09:36;;;;;;;0.10;0.10;;;10.00;99.90;;;;;;5039865;28;20044;-72
2024/01/02 04:12:02;;;;;;;1.15;0.30;;;10.00;99.90;;;;;;5040754;28;20021;-73
2024/01/02 04:14:28;;;;;;;0.50;0.10;;;10.00;99.90;;;;;;5040281;28;20116;-72
2024/01/02 04:16:54;;;;;;;0.52;0.20;;;10.10;99.90;;;;;;5042767;28;20036;-72
2024/01/02 04:19:21;;;;;;;0.10;0.10;;;10.10;99.90;;;;;;5045038;28;20034;-73
2024/01/02 04:21:47;;;;;;;0.30;0.10;;;10.10;99.90;;;;;;5047566;28;20027;-72
2024/01/02 04:24:14;;;;;;;0.17;0.08;;;10.20;99.90;;;;;;5040097;28;20120;-73
2024/01/02 04:26:40;;;;;;;0.20;0.20;;;10.20;99.90;;;;;;5039303;28;20072;-73
2024/01/02 04:29:06;;;;;;;0.82;0.30;;;10.30;99.90;;;;;;5036601;28;20053;-72
2024/01/02 04:31:32;;;;;;;2.13;0.20;;;10.30;99.90;;;;;;5037487;28;20474;-72
2024/01/02 04:33:57;;;;;;;0.90;0.30;;;10.30;99.90;;;;;;5039634;28;20378;-72
2024/01/02 04:36:25;;;;;;;0.60;0.25;;;10.30;99.90;;;;;;5045556;28;20466;-72
2024/01/02 04:38:52;;;;;;;1.00;0.30;;;10.40;99.90;;;;;;5043609;28;20047;-72
2024/01/02 04:41:20;;;;;;;0.20;0.20;;;10.40;99.90;;;;;;5043860;28;20043;-72
2024/01/02 04:43:45;;;;;;;0.40;0.30;;;10.50;99.90;;;;;;5040918;28;20032;-73
2024/01/02 04:46:11;;;;;;;0.22;0.22;;;10.50;99.90;;;;;;5043548;28;20029;-72
2024/01/02 04:48:37;;;;;;;0.20;0.20;;;10.50;99.90;;;;;;5040785;28;20041;-72
2024/01/02 04:51:03;;;;;;;0.30;0.30;;;10.50;99.90;;;;;;5049215;28;20035;-72
2024/01/02 04:53:29;;;;;;;0.43;0.43;;;10.60;99.90;;;;;;5043848;28;20032;-73
2024/01/02 04:55:54;;;;;;;0.30;0.20;;;10.60;99.90;;;;;;5046142;28;20033;-73
2024/01/02 04:58:20;;;;;;;0.30;0.30;;;10.60;99.90;;;;;;5046665;28;20033;-72
2024/01/02 05:00:46;;;;;;;0.22;0.20;;;10.60;99.90;;;;;;5043875;28;20386;-73
2024/01/02 05:03:12;;;;;;;0.22;0.20;;;10.60;99.90;;;;;;5045539;28;20037;-72
2024/01/02 05:05:38;;;;;;;0.85;0.13;;;10.60;99.90;;;;;;5045100;28;20032;-72
2024/01/02 05:08:05;;;;;;;0.63;0.40;;;10.70;99.90;;;;;;5048342;28;20025;-73
2024/01/02 05:10:30;;;;;;;0.30;0.30;;;10.70;99.90;;;;;;5051696;28;20042;-72
2024/01/02 05:12:56;;;;;;;0.45;0.25;;;10.70;99.90;;;;;;5048304;28;20108;-73
2024/01/02 05:15:22;;;;;;;0.28;0.17;;;10.80;99.90;;;;;;5045324;28;20490;-72
2024/01/02 05:17:47;;;;;;;0.20;0.20;;;10.90;99.90;;;;;;5044099;28;20033;-73
2024/01/02 05:20:13;;;;;;;1.13;0.20;;;10.90;99.90;;;;;;5044607;28;20033;-73
2024/01/02 05:22:39;;;;;;;1.92;1.83;;;10.90;99.90;;;;;;5046160;28;20757;-72
2024/01/02 05:25:06;;;;;;;0.20;0.20;;;11.00;99.90;;;;;;5046083;28;20059;-72
2024/01/02 05:27:32;;;;;;;0.20;0.20;;;11.00;99.90;;;;;;5048175;28;20021;-72
2024/01/02 05:29:58;;;;;;;0.40;0.30;;;11.00;99.90;;;;;;5044478;28;20482;-72
2024/01/02 05:32:24;;;;;;;0.10;0.10;;;11.10;99.90;;;;;;5037535;28;20025;-72
2024/01/02 05:34:49;;;;;;;0.30;0.30;;;11.10;99.90;;;;;;5041388;28;20083;-72
2024/01/02 05:37:16;;;;;;;0.45;0.45;;;11.10;99.90;;;;;;5044626;28;20024;-73
2024/01/02 05:39:43;;;;;;;0.45;0.40;;;11.10;99.90;;;;;;5041843;28;20493;-72
2024/01/02 05:42:08;;;;;;;0.47;0.40;;;11.20;99.90;;;;;;5045086;28;20032;-72
2024/01/02 05:44:34;;;;;;;0.50;0.50;;;11.20;99.90;;;;;;5042204;28;20543;-72
2024/01/02 05:46:59;;;;;;;0.57;0.57;;;11.20;99.90;;;;;;5044406;28;20033;-72
2024/01/02 05:49:25;;;;;;;2.42;0.80;;;11.30;99.90;;;;;;5045140;28;20547;-72
2024/01/02 05:51:51;;;;;;;0.95;0.60;;;11.30;99.90;;;;;;5046544;28;20436;-72
2024/01/02 05:54:16;;;;;;;0.47;0.47;;;11.40;99.90;;;;;;5043211;28;20466;-72
2024/01/02 05:56:43;;;;;;;0.52;0.52;;;11.50;99.90;;;;;;5041942;28;20675;-72
2024/01/02 05:59:09;;;;;;;0.80;0.70;;;11.50;99.90;;;;;;5042004;28;20033;-72
2024/01/02 06:01:35;;;;;;;0.50;0.50;;;11.50;99.90;;;;;;5043900;28;20025;-72
2024/01/02 06:04:01;;;;;;;1.63;0.50;;;11.50;99.90;;;;;;5048146;28;20851;-72
2024/01/02 06:06:27;;;;;;;1.27;0.60;;;11.50;99.90;;;;;;5047126;28;20067;-73
2024/01/02 06:08:52;;;;;;;1.95;0.60;;;11.50;99.90;;;;;;5049703;28;20025;-71
2024/01/02 06:11:18;;;;;;;0.90;0.43;;;11.60;99.90;;;;;;5046819;28;20116;-71
2024/01/02 06:13:44;;;;;;;1.10;0.60;;;11.60;99.90;;;;;;5044434;28;20105;-71
2024/01/02 06:16:10;;;;;;;1.33;0.50;;;11.60;99.90;;;;;;5040895;28;20033;-71
2024/01/02 06:18:36;;;;;;;0.82;0.45;;;11.60;99.90;;;;;;5044214;28;20108;-72
2024/01/02 06:21:04;;;;;;;1.02;0.68;;;11.70;99.90;;;;;;5050011;28;20451;-71
2024/01/02 06:23:32;;;;;;;1.50;0.90;;;11.70;99.90;;;;;;5042282;28;20056;-71
2024/01/02 06:25:58;;;;;;;2.05;0.70;;;11.80;99.90;;;;;;5043311;28;20491;-71
2024/01/02 06:28:24;;;;;;;1.27;0.60;;;11.80;99.90;;;;;;5041728;28;20067;-71
2024/01/02 06:30:50;;;;;;;0.68;0.55;;;11.80;99.90;;;;;;5050725;28;20030;-71
2024/01/02 06:33:17;;;;;;;1.10;0.98;;;11.80;99.90;;;;;;5046489;28;20435;-72
2024/01/02 06:35:43;;;;;;;1.63;0.68;;;11.80;99.90;;;;;;5050028;28;20509;-71
2024/01/02 06:38:09;;;;;;;1.02;0.75;;;11.90;99.90;;;;;;5037872;28;20037;-72
2024/01/02 06:40:39;;;;;;;0.88;0.65;;;11.80;99.90;;;;;;5035604;28;20109;-72
2024/01/02 06:43:04;;;;;;;1.70;0.90;;;11.90;99.90;;;;;;5042013;28;20033;-71
2024/01/02 06:45:31;;;;;;;1.00;1.00;;;12.00;99.90;;;;;;5045691;28;20084;-72
2024/01/02 06:47:57;;;;;;;1.40;0.70;;;11.90;99.90;;;;;;5041847;28;20107;-72
2024/01/02 06:50:23;;;;;;;0.95;0.55;;;12.00;99.90;;;;;;5050562;28;20095;-73
2024/01/02 06:52:49;;;;;;;1.10;0.65;;;11.90;99.90;;;;;;5033517;28;20039;-72
2024/01/02 06:55:15;;;;;;;1.67;0.80;;;11.90;99.90;;;;;;5037992;28;20367;-72
2024/01/02 06:57:40;;;;;;;0.85;0.85;;;12.00;99.90;;;;;;5038102;28;20029;-71
2024/01/02 07:00:07;;;;;;;1.45;1.35;;;12.00;99.90;;;;;;5042441;28;20159;-74
2024/01/02 07:02:33;;;;;;;1.90;1.30;;;12.00;99.90;;;;;;5045760;28;20037;-71
2024/01/02 07:04:59;;;;;;;1.75;1.48;;;11.90;99.90;;;;;;5039404;28;20041;-72
2024/01/02 07:07:25;;;;;;;2.15;1.60;;;12.00;99.90;;;;;;5040970;28;20033;-72
2024/01/02 07:09:51;;;;;;;1.77;1.52;;;12.10;99.90;;;;;;5044179;28;20036;-71
2024/01/02 07:12:17;;;;;;;2.45;1.98;;;12.10;99.90;;;;;;5039908;28;20026;-72
2024/01/02 07:14:43;;;;;;;2.75;2.20;;;12.10;99.90;;;;;;5043240;28;20025;-72
2024/01/02 07:17:15;;;;;;;4.13;1.63;;;12.10;99.90;;;;;;5042291;28;20037;-71
2024/01/02 07:19:41;;;;;;;5.25;2.22;;;12.10;99.90;;;;;;5044909;28;20021;-72
2024/01/02 07:22:07;;;;;;;2.83;2.50;;;12.20;99.90;;;;;;5043580;28;20029;-72
2024/01/02 07:24:34;;;;;;;3.20;2.40;;;12.20;99.90;;;;;;5039924;28;20097;-72
2024/01/02 07:26:59;;;;;;;7.32;2.75;;;12.20;99.90;;;;;;5040866;28;20029;-72
2024/01/02 07:29:26;;;;;;;3.90;2.70;;;12.20;99.90;;;;;;5040891;28;20087;-71
2024/01/02 07:31:51;;;;;;;1.98;1.77;;;12.30;99.90;;;;;;5052059;28;20021;-71
2024/01/02 07:34:17;;;;;;;2.65;1.40;;;12.30;99.90;;;;;;5048560;28;20033;-72
2024/01/02 07:36:43;;;;;;;1.50;1.40;;;12.30;99.90;;;;;;5054792;28;20509;-72
2024/01/02 07:39:09;;;;;;;2.55;1.58;;;12.30;99.90;;;;;;5047847;28;20040;-73
2024/01/02 07:41:35;;;;;;;3.20;1.17;;;12.30;99.90;;;;;;5039569;28;20025;-72
2024/01/02 07:44:03;;;;;;;1.95;1.42;;;12.30;99.90;;;;;;5044148;28;20517;-71
2024/01/02 07:46:29;;;;;;;1.20;0.90;;;12.30;99.90;;;;;;5051201;28;20025;-72
2024/01/02 07:48:55;;;;;;;2.42;1.17;;;12.30;99.90;;;;;;5039111;28;20450;-72
2024/01/02 07:51:21;;;;;;;1.42;0.88;;;12.30;99.90;;;;;;5041045;28;20115;-72
2024/01/02 07:53:47;;;;;;;1.58;1.15;;;12.30;99.90;;;;;;5042743;28;20109;-72
2024/01/02 07:56:13;;;;;;;2.72;1.50;;;12.30;99.90;;;;;;5041665;28;20034;-71
2024/01/02 07:58:38;;;;;;;3.83;1.67;;;12.30;99.90;;;;;;5034999;28;20037;-72
2024/01/02 08:01:04;;;;;;;1.88;1.30;;;12.30;99.90;;;;;;5037749;28;20026;-71
2024/01/02 08:03:30;;;;;;;2.28;1.40;;;12.30;99.90;;;;;;5048227;28;20502;-72
2024/01/02 08:05:55;;;;;;;4.40;1.52;;;12.30;99.90;;;;;;5040670;28;20136;-72
2024/01/02 08:08:21;;;;;;;1.27;1.08;;;12.40;99.90;;;;;;5043925;28;20096;-72
2024/01/02 08:10:47;;;;;;;3.20;1.50;;;12.50;99.90;;;;;;5041942;28;20057;-73
2024/01/02 08:13:12;;;;;;;1.25;1.15;;;12.40;99.90;;;;;;5044422;28;20025;-72
2024/01/02 08:15:38;;;;;;;2.67;1.17;;;12.50;99.90;;;;;;5046824;28;20466;-72
2024/01/02 08:18:04;;;;;;;2.28;0.98;;;12.50;99.90;;;;;;5044168;28;20078;-72
2024/01/02 08:20:30;;;;;;;1.70;1.08;;;12.50;99.90;;;;;;5038048;28;20026;-72
2024/01/02 08:22:56;;;;;;;1.35;0.90;;;12.60;99.90;;;;;;5041846;28;20040;-72
2024/01/02 08:25:23;;;;;;;2.10;1.20;;;12.50;99.90;;;;;;5048544;28;20025;-72
2024/01/02 08:27:50;;;;;;;1.27;1.20;;;12.60;99.90;;;;;;5041815;28;20029;-72
2024/01/02 08:30:16;;;;;;;1.83;1.33;;;12.60;99.90;;;;;;5046376;28;20043;-72
2024/01/02 08:32:42;;;;;;;4.97;1.40;;;12.60;99.90;;;;;;5042530;28;20021;-72
2024/01/02 08:35:07;;;;;;;4.28;1.50;;;12.60;99.90;;;;;;5046844;28;20041;-72
2024/01/02 08:37:33;;;;;;;1.33;1.10;;;12.60;99.90;;;;;;5047774;28;20033;-72
2024/01/02 08:39:59;;;;;;;1.60;1.50;;;12.60;99.90;;;;;;5051156;28;20025;-72
2024/01/02 08:42:25;;;;;;;5.45;1.55;;;12.60;99.90;;;;;;5049531;28;20052;-72
2024/01/02 08:44:51;;;;;;;3.15;1.60;;;12.60;99.90;;;;;;5043932;28;20497;-72
2024/01/02 08:47:17;;;;;;;2.80;1.42;;;12.60;99.90;;;;;;5041872;28;20029;-72
2024/01/02 08:49:42;;;;;;;2.58;1.45;;;12.60;99.90;;;;;;5043834;28;20033;-72
2024/01/02 08:52:08;;;;;;;1.50;1.40;;;12.70;99.90;;;;;;5048025;28;20049;-72
2024/01/02 08:54:34;;;;;;;1.67;1.58;;;12.70;99.90;;;;;;5043716;28;20386;-72
2024/01/02 08:56:59;;;;;;;1.77;1.30;;;12.70;99.90;;;;;;5041992;28;20379;-72
2024/01/02 08:59:25;;;;;;;1.90;1.35;;;12.70;99.90;;;;;;5046588;28;20036;-72
2024/01/02 09:01:51;;;;;;;2.78;1.35;;;12.80;99.90;;;;;;5044439;28;20121;-72
2024/01/02 09:04:18;;;;;;;1.60;1.50;;;12.70;99.90;;;;;;5048951;28;20155;-72
2024/01/02 09:06:44;;;;;;;4.75;2.03;;;12.70;99.90;;;;;;5051782;28;20029;-72
2024/01/02 09:09:10;;;;;;;3.58;2.08;;;12.70;99.90;;;;;;5046067;28;20108;-72
2024/01/02 09:11:37;;;;;;;3.78;2.75;;;12.70;99.90;;;;;;5053218;28;20575;-72
2024/01/02 09:14:03;;;;;;;4.32;2.65;;;12.70;99.90;;;;;;5043739;28;20050;-72
2024/01/02 09:16:32;;;;;;;3.95;3.05;;;12.70;99.90;;;;;;5048682;28;20029;-72
2024/01/02 09:18:58;;;;;;;5.25;3.75;;;12.70;99.90;;;;;;5041317;28;20032;-72
2024/01/02 09:21:24;;;;;;;3.55;3.20;;;12.70;99.90;;;;;;5047373;28;20029;-72
2024/01/02 09:23:50;;;;;;;4.55;3.00;;;12.70;99.90;;;;;;5045815;28;20032;-72
2024/01/02 09:26:22;;;;;;;3.95;2.65;;;12.80;99.90;;;;;;5045158;28;20107;-72
2024/01/02 09:28:48;;;;;;;4.97;2.65;;;12.80;99.90;;;;;;5039756;28;20026;-72
2024/01/02 09:31:14;;;;;;;3.35;2.75;;;12.80;99.90;;;;;;5038575;28;20017;-72
2024/01/02 09:33:43;;;;;;;2.10;1.70;;;12.90;99.90;;;;;;5038764;28;20037;-72
2024/01/02 09:36:08;;;;;;;1.95;1.35;;;12.80;99.90;;;;;;5043505;28;20027;-73
2024/01/02 09:38:38;;;;;;;2.13;1.20;;;12.80;99.90;;;;;;5043781;28;20390;-73
2024/01/02 09:41:26;;;;;;;0.95;0.77;;;12.80;99.90;;;;;;5040630;28;20029;-72
2024/01/02 09:44:15;;;;;;;1.63;0.90;;;12.80;99.90;;;;;;5037769;28;20087;-72
2024/01/02 09:46:54;;;;;;;1.38;0.60;;;12.90;99.90;;;;;;5041122;28;20030;-72
2024/01/02 09:49:44;;;;;;;2.05;0.50;;;12.80;99.90;;;;;;5047913;28;20037;-72
2024/01/02 09:52:48;;;;;;;0.68;0.60;;;12.80;99.90;;;;;;5049265;28;20406;-72
2024/01/02 09:55:40;;;;;;;1.00;0.50;;;12.90;99.90;;;;;;5042195;28;20029;-72
2024/01/02 09:58:12;;;;;;;0.40;0.40;;;12.90;99.90;;;;;;5043425;28;20881;-73
2024/01/02 10:00:59;;;;;;;0.35;0.30;;;12.90;99.90;;;;;;5042594;28;20482;-73
2024/01/02 10:03:57;;;;;;;0.70;0.45;;;12.90;99.90;;;;;;5042557;28;20722;-72
2024/01/02 10:07:15;;;;;;;0.85;0.50;;;12.90;99.90;;;;;;5042976;28;20086;-73
2024/01/02 10:10:03;;;;;;;0.40;0.40;;;12.80;99.90;;;;;;5052369;28;20110;-73
2024/01/02 10:12:41;;;;;;;0.95;0.40;;;12.90;99.90;;;;;;5041028;28;20025;-73
2024/01/02 10:15:23;;;;;;;0.30;0.30;;;12.80;99.90;;;;;;5045615;28;20117;-72
2024/01/02 10:17:58;;;;;;;0.68;0.30;;;12.80;99.90;;;;;;5042495;28;20033;-73
2024/01/02 10:20:54;;;;;;;0.28;0.28;;;12.80;99.90;;;;;;5042965;28;20438;-72
2024/01/02 10:23:38;;;;;;;0.10;0.10;;;12.80;99.90;;;;;;5045760;28;20048;-72
2024/01/02 10:26:08;;;;;;;0.70;0.55;;;12.80;99.90;;;;;;5042144;28;20470;-73
2024/01/02 10:28:35;;;;;;;0.70;0.60;;;12.80;99.90;;;;;;5045862;28;20036;-72
2024/01/02 10:31:36;;;;;;;0.50;0.50;;;12.60;99.90;;;;;;5047684;28;20083;-72
2024/01/02 10:34:21;;;;;;;0.50;0.50;;;12.70;99.90;;;;;;5039057;28;20048;-70
2024/01/02 10:36:56;;;;;;;0.80;0.60;;;12.60;99.90;;;;;;5017198;28;20125;-73
2024/01/02 10:39:31;;;;;;;1.10;0.68;;;12.60;99.90;;;;;;5032966;28;20025;-74
2024/01/02 10:42:09;;;;;;;3.60;0.90;;;12.60;99.90;;;;;;5035732;28;20493;-74
2024/01/02 10:44:46;;;;;;;0.82;0.70;;;12.70;99.90;;;;;;5031366;28;20460;-74
2024/01/02 10:47:33;;;;;;;1.83;0.90;;;12.70;99.90;;;;;;5038726;28;20024;-74
2024/01/02 10:50:02;;;;;;;0.95;0.77;;;12.60;99.90;;;;;;5037175;28;20045;-74
2024/01/02 10:53:30;;;;;;;0.93;0.90;;;12.70;99.90;;;;;;5039994;28;20026;-73
2024/01/02 10:56:12;;;;;;;3.03;0.90;;;12.60;99.90;;;;;;5014019;28;20137;-74
2024/01/02 10:59:06;;;;;;;0.70;0.70;;;12.70;99.90;;;;;;5036784;28;20072;-73
2024/01/02 11:01:37;;;;;;;0.90;0.90;;;12.60;99.90;;;;;;5036270;28;20119;-73
2024/01/02 11:04:21;;;;;;;0.98;0.80;;;12.60;99.90;;;;;;5033836;28;20031;-74
2024/01/02 11:07:04;;;;;;;0.77;0.77;;;12.60;99.90;;;;;;5036890;28;20025;-73
2024/01/02 11:10:01;;;;;;;0.90;0.73;;;12.60;99.90;;;;;;5035307;28;20041;-74
2024/01/02 11:12:31;;;;;;;2.42;0.57;;;12.60;99.90;;;;;;5035282;28;20059;-74
2024/01/02 11:14:57;;;;;;;2.35;0.93;;;12.60;99.90;;;;;;5033594;28;20072;-74
2024/01/02 11:17:23;;;;;;;1.20;0.55;;;12.60;99.90;;;;;;5033734;28;20048;-74
2024/01/02 11:20:13;;;;;;;0.40;0.40;;;12.60;99.90;;;;;;5038590;28;20032;-73
2024/01/02 11:23:01;;;;;;;1.40;0.30;;;12.50;99.90;;;;;;5035049;28;20462;-73
2024/01/02 11:25:31;;;;;;;0.50;0.40;;;12.50;99.90;;;;;;5036877;28;20418;-74
2024/01/02 11:28:00;;;;;;;0.25;0.25;;;12.40;99.90;;;;;;5038562;28;20053;-73
2024/01/02 11:30:33;;;;;;;0.30;0.30;;;12.50;99.90;;;;;;5039466;28;20075;-74
2024/01/02 11:32:58;;;;;;;;;;;12.40;99.90;;;;;;5035400;28;20014;-73
2024/01/02 11:35:31;;;;;;;0.20;0.20;;;12.50;99.90;;;;;;5027762;28;19911;-75
2024/01/02 11:38:09;;;;;;;0.50;0.20;;;12.50;99.90;;;;;;5035976;28;20033;-74
2024/01/02 11:40:54;;;;;;;0.63;0.30;;;12.40;99.90;;;;;;5037831;28;20021;-73
2024/01/02 11:43:37;;;;;;;0.40;0.22;;;12.40;99.90;;;;;;5033271;28;20028;-74
2024/01/02 11:46:06;;;;;;;0.80;0.32;;;12.40;99.90;;;;;;5034799;28;20026;-73
2024/01/02 11:48:38;;;;;;;1.50;0.70;;;12.40;99.90;;;;;;5031320;28;20045;-73
2024/01/02 11:51:09;;;;;;;2.60;0.65;;;12.30;99.90;;;;;;5036615;28;20478;-73
2024/01/02 11:54:02;;;;;;;1.88;0.98;;;12.40;99.90;;;;;;5033900;28;20071;-74
2024/01/02 11:56:33;;;;;;;1.23;0.70;;;12.40;99.90;;;;;;5033886;28;20025;-74
2024/01/02 11:59:37;;;;;;;1.05;0.70;;;12.30;99.90;;;;;;5042030;28;20458;-74
2024/01/02 12:02:08;;;;;;;1.58;0.60;;;12.20;99.90;;;;;;5044089;28;20142;-74
2024/01/02 12:04:44;;;;;;;1.80;0.80;;;12.20;99.90;;;;;;5040436;28;20048;-74
2024/01/02 12:07:17;;;;;;;0.93;0.80;;;12.30;99.90;;;;;;5040937;28;20127;-74
2024/01/02 12:09:46;;;;;;;1.52;1.00;;;12.20;99.90;;;;;;5039359;28;20029;-74
2024/01/02 12:12:47;;;;;;;0.50;0.50;;;12.20;99.90;;;;;;5038105;28;20356;-74
2024/01/02 12:15:35;;;;;;;0.75;0.60;;;12.20;99.90;;;;;;5038021;28;20021;-74
2024/01/02 12:18:06;;;;;;;1.42;0.70;;;12.20;99.90;;;;;;5039901;28;20076;-74
2024/01/02 12:20:44;;;;;;;1.50;0.80;;;12.10;99.90;;;;;;5040366;28;20040;-74
2024/01/02 12:23:11;;;;;;;0.90;0.50;;;12.20;99.90;;;;;;5042007;28;20103;-74
2024/01/02 12:25:42;;;;;;;2.85;1.50;;;12.20;99.90;;;;;;5038869;28;20036;-74
2024/01/02 12:28:09;;;;;;;0.70;0.70;;;12.20;99.90;;;;;;5041073;28;20104;-74
2024/01/02 12:30:41;;;;;;;0.60;0.55;;;12.20;99.90;;;;;;5041757;28;20087;-74
2024/01/02 12:33:41;;;;;;;2.50;0.55;;;12.10;99.90;;;;;;5034345;28;20075;-74
2024/01/02 12:36:30;;;;;;;6.30;5.90;;;12.20;99.90;;;;;;5037719;28;20130;-74
2024/01/02 12:39:05;;;;;;;0.80;0.70;;;12.10;99.90;;;;;;5042368;28;20419;-74
2024/01/02 12:41:54;;;;;;;0.60;0.50;;;12.20;99.90;;;;;;5043484;28;20108;-74
2024/01/02 12:44:21;;;;;;;1.33;0.50;;;12.10;99.90;;;;;;5039880;28;20024;-74
2024/01/02 12:47:02;;;;;;;0.77;0.40;;;11.90;99.90;;;;;;5038786;28;20029;-74
2024/01/02 12:49:28;;;;;;;1.30;0.60;;;12.00;99.90;;;;;;5037478;28;20055;-75
2024/01/02 12:52:04;;;;;;;0.40;0.40;;;12.00;99.90;;;;;;5037054;28;20765;-75
2024/01/02 12:54:33;;;;;;;0.40;0.40;;;12.00;99.90;;;;;;5036707;28;20017;-74
2024/01/02 12:57:03;;;;;;;0.80;0.50;;;12.00;99.90;;;;;;5036932;28;20025;-74
2024/01/02 12:59:31;;;;;;;1.00;0.60;;;12.00;99.90;;;;;;5041121;28;20013;-74
2024/01/02 13:01:57;;;;;;;0.65;0.40;;;12.00;99.90;;;;;;5039198;28;20126;-74